Time;durP1;ratioP1;P1;durP2;ratioP2;P2;SDS_P1;SDS_P2;PMS_P1;PMS_P2;Temp;Humidity;BMP_temperature;BMP_pressure;BME280_temperature;BME280_humidity;BME280_pressure;Samples;Min_cycle;Max_cycle;Signal;HPM_P1;HPM_P2
2023/10/05 00:02:21;;;;;;;11.82;1.98;;;;;;;;;;5097678;28;21432;-38
2023/10/05 00:04:50;;;;;;;13.25;2.53;;;;;;;;;;5092994;28;20028;-37
2023/10/05 00:07:26;;;;;;;10.57;2.25;;;;;;;;;;5098348;28;20498;-38
2023/10/05 00:09:56;;;;;;;13.40;2.50;;;;;;;;;;5078738;28;20127;-38
2023/10/05 00:12:23;;;;;;;9.95;2.35;;;;;;;;;;5092801;28;20133;-38
2023/10/05 00:15:13;;;;;;;9.50;2.13;;;;;;;;;;5093688;28;20020;-38
2023/10/05 00:17:39;;;;;;;13.07;2.30;;;;;;;;;;5093501;28;20048;-38
2023/10/05 00:23:03;;;;;;;12.15;2.45;;;;;;;;;;5066965;28;20040;-40
2023/10/05 00:25:32;;;;;;;16.35;2.72;;;;;;;;;;5093918;28;20067;-40
2023/10/05 00:28:03;;;;;;;14.98;2.45;;;;;;;;;;5093490;28;20524;-38
2023/10/05 00:30:31;;;;;;;17.33;3.15;;;;;;;;;;5091616;28;20047;-38
2023/10/05 00:33:00;;;;;;;14.57;3.10;;;;;;;;;;5082189;28;20055;-38
2023/10/05 00:35:29;;;;;;;12.77;2.92;;;;;;;;;;5087822;28;20028;-38
2023/10/05 00:37:57;;;;;;;12.98;2.92;;;;;;;;;;5085404;28;20039;-38
2023/10/05 00:40:38;;;;;;;16.85;2.92;;;;;;;;;;5093568;28;20035;-38
2023/10/05 00:45:46;;;;;;;13.63;2.90;;;;;;;;;;5079497;28;20047;-38
2023/10/05 00:48:26;;;;;;;12.77;2.38;;;;;;;;;;5092144;28;20031;-37
2023/10/05 00:50:54;;;;;;;13.75;2.80;;;;;;;;;;5082248;28;20051;-37
2023/10/05 00:53:22;;;;;;;14.65;2.80;;;;;;;;;;5090249;28;20051;-37
2023/10/05 00:55:53;;;;;;;10.05;2.58;;;;;;;;;;5091626;28;20466;-38
2023/10/05 00:58:23;;;;;;;10.15;2.75;;;;;;;;;;5092743;28;20036;-38
2023/10/05 01:00:50;;;;;;;15.45;2.83;;;;;;;;;;5087204;28;20021;-38
2023/10/05 01:03:33;;;;;;;23.38;3.60;;;;;;;;;;5085681;28;20498;-39
2023/10/05 01:06:12;;;;;;;21.92;3.80;;;;;;;;;;5087813;28;20032;-38
2023/10/05 01:08:59;;;;;;;18.60;3.33;;;;;;;;;;5088217;28;20568;-39
2023/10/05 01:11:40;;;;;;;15.27;3.17;;;;;;;;;;5085954;28;20028;-38
2023/10/05 01:14:08;;;;;;;16.58;3.65;;;;;;;;;;5080278;28;20718;-38
2023/10/05 01:16:35;;;;;;;18.15;3.63;;;;;;;;;;5085114;28;20486;-39
2023/10/05 01:19:07;;;;;;;20.73;4.97;;;;;;;;;;5078353;28;20567;-39
2023/10/05 01:21:39;;;;;;;26.25;6.00;;;;;;;;;;5077642;28;20036;-39
2023/10/05 01:24:07;;;;;;;31.30;6.45;;;;;;;;;;5094107;28;20045;-38
2023/10/05 01:26:36;;;;;;;24.48;6.40;;;;;;;;;;5073956;28;20074;-38
2023/10/05 01:29:04;;;;;;;31.02;6.60;;;;;;;;;;5073279;28;20044;-38
2023/10/05 01:31:32;;;;;;;23.38;6.57;;;;;;;;;;5073194;28;20036;-39
2023/10/05 01:33:59;;;;;;;33.63;7.20;;;;;;;;;;5085454;28;20048;-38
2023/10/05 01:36:26;;;;;;;27.92;6.82;;;;;;;;;;5089517;28;20454;-37
2023/10/05 01:39:02;;;;;;;26.65;6.00;;;;;;;;;;5092188;28;20063;-38
2023/10/05 01:41:30;;;;;;;30.23;6.45;;;;;;;;;;5092175;28;20047;-37
2023/10/05 01:44:00;;;;;;;21.92;6.90;;;;;;;;;;5092248;28;20047;-38
2023/10/05 01:46:31;;;;;;;25.67;7.15;;;;;;;;;;5092030;28;20043;-38
2023/10/05 01:48:58;;;;;;;24.95;7.03;;;;;;;;;;5092257;28;20032;-37
2023/10/05 01:51:25;;;;;;;24.88;6.22;;;;;;;;;;5092192;28;20039;-38
2023/10/05 01:53:56;;;;;;;19.73;5.97;;;;;;;;;;5076703;28;20036;-37
2023/10/05 01:56:23;;;;;;;24.95;6.55;;;;;;;;;;5078390;28;20039;-37
2023/10/05 01:58:55;;;;;;;21.27;6.35;;;;;;;;;;5074717;28;20470;-38
2023/10/05 02:01:22;;;;;;;20.73;6.07;;;;;;;;;;5087684;28;20044;-37
2023/10/05 02:03:57;;;;;;;21.90;5.50;;;;;;;;;;5074531;28;20032;-38
2023/10/05 02:06:28;;;;;;;22.80;5.70;;;;;;;;;;5080440;28;20077;-37
2023/10/05 02:08:55;;;;;;;19.73;5.40;;;;;;;;;;5090201;28;20044;-37
2023/10/05 02:11:25;;;;;;;18.40;4.93;;;;;;;;;;5087943;28;20052;-38
2023/10/05 02:13:53;;;;;;;22.55;6.35;;;;;;;;;;5074424;28;20047;-38
2023/10/05 02:16:21;;;;;;;23.35;5.78;;;;;;;;;;5084815;28;20500;-38
2023/10/05 02:18:49;;;;;;;16.90;5.38;;;;;;;;;;5077191;28;20106;-38
2023/10/05 02:21:29;;;;;;;18.98;5.38;;;;;;;;;;5082992;28;20032;-38
2023/10/05 02:27:29;;;;;;;18.52;5.97;;;;;;;;;;5075540;28;20123;-38
2023/10/05 02:29:31;;;;;;;19.77;5.88;;;;;;;;;;5083909;28;20051;-38
2023/10/05 02:37:19;;;;;;;16.55;5.50;;;;;;;;;;5067891;28;20050;-38
2023/10/05 02:39:48;;;;;;;17.52;5.22;;;;;;;;;;5111958;28;20039;-37
2023/10/05 02:42:21;;;;;;;19.60;5.10;;;;;;;;;;5103091;28;20015;-36
2023/10/05 02:44:49;;;;;;;16.73;4.90;;;;;;;;;;5097857;28;20044;-38
2023/10/05 02:47:22;;;;;;;22.80;5.68;;;;;;;;;;5101745;28;20035;-37
2023/10/05 02:49:50;;;;;;;22.42;5.00;;;;;;;;;;5102064;28;20122;-37
2023/10/05 02:52:17;;;;;;;14.38;4.45;;;;;;;;;;5100708;28;20032;-37
2023/10/05 02:54:47;;;;;;;14.20;4.35;;;;;;;;;;5100191;28;20400;-38
2023/10/05 02:57:20;;;;;;;14.98;4.78;;;;;;;;;;5111302;28;20036;-37
2023/10/05 02:59:46;;;;;;;;;;;;;;;;;;5083891;28;20468;-38
2023/10/05 03:02:18;;;;;;;10.65;3.65;;;;;;;;;;5081030;28;19965;-38
2023/10/05 03:04:48;;;;;;;12.15;4.45;;;;;;;;;;5082639;28;20439;-38
2023/10/05 03:07:17;;;;;;;23.88;4.55;;;;;;;;;;5101198;28;20024;-38
2023/10/05 03:09:48;;;;;;;9.52;3.90;;;;;;;;;;5101847;28;20040;-37
2023/10/05 03:12:20;;;;;;;13.90;3.95;;;;;;;;;;5098732;28;20046;-38
2023/10/05 03:14:50;;;;;;;16.88;4.20;;;;;;;;;;5096870;28;20036;-37
2023/10/05 03:17:21;;;;;;;10.25;3.40;;;;;;;;;;5091261;28;20032;-37
2023/10/05 03:19:52;;;;;;;14.23;3.85;;;;;;;;;;5091074;28;20440;-37
2023/10/05 03:22:23;;;;;;;14.40;3.85;;;;;;;;;;5091234;28;20085;-36
2023/10/05 03:24:51;;;;;;;14.00;4.07;;;;;;;;;;5090921;28;20075;-38
2023/10/05 03:27:22;;;;;;;12.55;3.97;;;;;;;;;;5091442;28;20035;-37
2023/10/05 03:30:03;;;;;;;10.52;3.45;;;;;;;;;;5091142;28;20051;-37
2023/10/05 03:32:31;;;;;;;10.45;3.40;;;;;;;;;;5090412;28;20398;-37
2023/10/05 03:34:58;;;;;;;9.77;3.50;;;;;;;;;;5091062;28;20032;-37
2023/10/05 03:37:29;;;;;;;15.35;4.15;;;;;;;;;;5091233;28;20085;-37
2023/10/05 03:42:33;;;;;;;13.10;3.58;;;;;;;;;;5094892;28;20367;-37
2023/10/05 03:45:17;;;;;;;11.35;3.72;;;;;;;;;;5094953;28;20051;-37
2023/10/05 03:47:49;;;;;;;10.38;3.70;;;;;;;;;;5094728;28;20036;-36
2023/10/05 03:50:19;;;;;;;14.63;2.95;;;;;;;;;;5094820;28;20043;-36
2023/10/05 03:52:46;;;;;;;10.05;3.28;;;;;;;;;;5094675;28;20081;-36
2023/10/05 03:55:18;;;;;;;9.32;3.15;;;;;;;;;;5094787;28;20031;-36
2023/10/05 03:57:45;;;;;;;9.73;3.35;;;;;;;;;;5094668;28;20150;-36
2023/10/05 04:02:50;;;;;;;6.57;2.55;;;;;;;;;;5094257;28;20109;-36
2023/10/05 04:05:18;;;;;;;10.80;3.10;;;;;;;;;;5094412;28;20036;-37
2023/10/05 04:07:47;;;;;;;9.20;2.80;;;;;;;;;;5094474;28;20055;-37
2023/10/05 04:10:20;;;;;;;8.63;2.83;;;;;;;;;;5094477;28;20033;-37
2023/10/05 04:12:49;;;;;;;12.40;3.05;;;;;;;;;;5094226;28;20036;-36
2023/10/05 04:15:18;;;;;;;8.00;2.67;;;;;;;;;;5094310;28;20044;-37
2023/10/05 04:17:49;;;;;;;5.80;2.40;;;;;;;;;;5094266;28;20036;-36
2023/10/05 04:20:28;;;;;;;12.55;3.30;;;;;;;;;;5094275;28;20031;-37
2023/10/05 04:22:56;;;;;;;6.50;2.47;;;;;;;;;;5094218;28;20035;-36
2023/10/05 04:25:23;;;;;;;6.28;2.50;;;;;;;;;;5094231;28;20024;-36
2023/10/05 04:27:50;;;;;;;7.68;2.72;;;;;;;;;;5075971;28;20381;-36
2023/10/05 04:30:20;;;;;;;8.20;2.45;;;;;;;;;;5094181;28;20481;-37
2023/10/05 04:32:48;;;;;;;7.47;2.40;;;;;;;;;;5093802;28;20181;-36
2023/10/05 04:35:44;;;;;;;5.97;2.45;;;;;;;;;;5094116;28;20016;-36
2023/10/05 04:38:03;;;;;;;7.65;2.50;;;;;;;;;;5093579;28;20042;-36
2023/10/05 04:40:33;;;;;;;7.82;2.78;;;;;;;;;;5093917;28;20024;-36
2023/10/05 04:43:04;;;;;;;5.15;2.00;;;;;;;;;;5093708;28;20139;-36
2023/10/05 04:45:31;;;;;;;9.00;2.45;;;;;;;;;;5093733;28;20138;-36
2023/10/05 04:47:58;;;;;;;6.70;2.20;;;;;;;;;;5093814;28;20028;-36
2023/10/05 04:50:26;;;;;;;5.35;2.15;;;;;;;;;;5093669;28;20020;-37
2023/10/05 04:52:54;;;;;;;5.78;2.08;;;;;;;;;;5093615;28;20107;-36
2023/10/05 04:55:31;;;;;;;6.97;2.35;;;;;;;;;;5093497;28;20081;-37
2023/10/05 05:08:34;;;;;;;6.13;2.58;;;;;;;;;;5093266;28;20489;-36
2023/10/05 05:11:03;;;;;;;5.47;1.90;;;;;;;;;;5093519;28;20024;-36
2023/10/05 05:13:30;;;;;;;5.95;2.10;;;;;;;;;;5093015;28;20079;-36
2023/10/05 05:15:57;;;;;;;5.00;2.05;;;;;;;;;;5093303;28;20494;-36
2023/10/05 05:18:24;;;;;;;5.97;1.80;;;;;;;;;;5093181;28;20028;-36
2023/10/05 05:20:53;;;;;;;4.90;2.13;;;;;;;;;;5093248;28;20024;-35
2023/10/05 05:23:20;;;;;;;5.53;2.47;;;;;;;;;;5092871;28;20040;-36
2023/10/05 05:25:54;;;;;;;6.28;1.80;;;;;;;;;;5093155;28;20066;-36
2023/10/05 05:28:21;;;;;;;5.65;1.70;;;;;;;;;;5092942;28;20035;-36
2023/10/05 05:30:48;;;;;;;6.90;2.03;;;;;;;;;;5093030;28;20056;-36
2023/10/05 05:33:17;;;;;;;4.80;2.05;;;;;;;;;;5092784;28;20121;-36
2023/10/05 05:35:44;;;;;;;3.90;1.83;;;;;;;;;;5092762;28;20040;-36
2023/10/05 05:38:12;;;;;;;4.43;1.50;;;;;;;;;;5093003;28;20031;-36
2023/10/05 05:40:39;;;;;;;3.85;1.73;;;;;;;;;;5092848;28;20021;-36
2023/10/05 05:43:11;;;;;;;2.30;1.40;;;;;;;;;;5092511;28;20081;-37
2023/10/05 05:45:44;;;;;;;4.03;1.98;;;;;;;;;;5092644;28;20032;-36
2023/10/05 05:48:15;;;;;;;3.13;1.60;;;;;;;;;;5108253;28;20442;-36
2023/10/05 05:50:43;;;;;;;5.50;1.50;;;;;;;;;;5092619;28;20032;-36
2023/10/05 05:53:14;;;;;;;5.47;1.73;;;;;;;;;;5092647;28;20490;-36
2023/10/05 05:55:43;;;;;;;3.72;1.30;;;;;;;;;;5092530;28;20031;-36
2023/10/05 05:58:16;;;;;;;2.85;1.55;;;;;;;;;;5092461;28;20086;-36
2023/10/05 06:00:46;;;;;;;3.53;1.30;;;;;;;;;;5091575;28;20034;-37
2023/10/05 06:03:14;;;;;;;3.72;1.58;;;;;;;;;;5091495;28;20052;-36
2023/10/05 06:05:41;;;;;;;4.68;1.40;;;;;;;;;;5092288;28;20024;-35
2023/10/05 06:08:09;;;;;;;3.75;1.40;;;;;;;;;;5107875;28;20394;-36
2023/10/05 06:10:36;;;;;;;4.55;1.55;;;;;;;;;;5092296;28;20379;-36
2023/10/05 06:13:06;;;;;;;3.38;1.50;;;;;;;;;;5092023;28;20393;-36
2023/10/05 06:15:34;;;;;;;2.72;1.20;;;;;;;;;;5092208;28;20103;-36
2023/10/05 06:18:02;;;;;;;2.83;1.50;;;;;;;;;;5092137;28;20028;-37
2023/10/05 06:20:29;;;;;;;4.88;1.58;;;;;;;;;;5092052;28;20246;-37
2023/10/05 06:22:57;;;;;;;3.40;1.50;;;;;;;;;;5092022;28;20036;-36
2023/10/05 06:25:28;;;;;;;2.58;1.30;;;;;;;;;;5092087;28;20552;-36
2023/10/05 06:27:55;;;;;;;2.33;1.15;;;;;;;;;;5091983;28;20038;-36
2023/10/05 06:30:22;;;;;;;3.45;1.55;;;;;;;;;;5092001;28;20359;-36
2023/10/05 06:32:49;;;;;;;2.53;1.20;;;;;;;;;;5107434;28;20065;-36
2023/10/05 06:35:17;;;;;;;3.30;1.50;;;;;;;;;;5091936;28;20036;-36
2023/10/05 06:37:44;;;;;;;1.90;0.90;;;;;;;;;;5091939;28;20036;-36
2023/10/05 06:40:21;;;;;;;2.60;1.05;;;;;;;;;;5091948;28;20032;-37
2023/10/05 06:42:49;;;;;;;1.95;1.05;;;;;;;;;;5091649;28;20039;-36
2023/10/05 06:45:19;;;;;;;2.38;1.40;;;;;;;;;;5091748;28;20500;-36
2023/10/05 06:47:48;;;;;;;2.10;1.15;;;;;;;;;;5091641;28;20111;-36
2023/10/05 06:50:15;;;;;;;2.80;1.15;;;;;;;;;;5091673;28;20472;-36
2023/10/05 06:52:49;;;;;;;2.70;1.40;;;;;;;;;;5107666;28;20502;-36
2023/10/05 06:55:17;;;;;;;2.58;1.38;;;;;;;;;;5091650;28;20035;-36
2023/10/05 06:57:45;;;;;;;2.83;1.40;;;;;;;;;;5091607;28;20024;-36
2023/10/05 07:00:21;;;;;;;3.38;1.30;;;;;;;;;;5091699;28;20031;-36
2023/10/05 07:02:49;;;;;;;2.55;1.10;;;;;;;;;;5085734;28;20482;-36
2023/10/05 07:05:17;;;;;;;2.58;1.10;;;;;;;;;;5091598;28;20032;-36
2023/10/05 07:07:44;;;;;;;4.30;1.10;;;;;;;;;;5091531;28;20024;-36
2023/10/05 07:10:14;;;;;;;4.20;1.77;;;;;;;;;;5091571;28;20424;-36
2023/10/05 07:12:42;;;;;;;1.92;1.20;;;;;;;;;;5091309;28;20055;-36
2023/10/05 07:15:09;;;;;;;2.60;1.25;;;;;;;;;;5094285;28;20034;-36
2023/10/05 07:17:37;;;;;;;1.10;0.80;;;;;;;;;;5095809;28;20599;-36
2023/10/05 07:20:04;;;;;;;3.15;1.35;;;;;;;;;;5095458;28;20036;-36
2023/10/05 07:22:31;;;;;;;1.65;1.08;;;;;;;;;;5095390;28;20437;-36
2023/10/05 07:24:59;;;;;;;1.85;0.80;;;;;;;;;;5095490;28;20103;-36
2023/10/05 07:27:26;;;;;;;1.90;0.82;;;;;;;;;;5095393;28;20032;-36
2023/10/05 07:29:53;;;;;;;2.85;0.90;;;;;;;;;;5095381;28;20103;-36
2023/10/05 07:32:20;;;;;;;1.70;0.80;;;;;;;;;;5095184;28;20746;-36
2023/10/05 07:34:48;;;;;;;1.58;0.90;;;;;;;;;;5095288;28;20059;-36
2023/10/05 07:37:15;;;;;;;1.58;0.80;;;;;;;;;;5095241;28;20085;-36
2023/10/05 07:39:42;;;;;;;2.78;1.10;;;;;;;;;;5095169;28;20099;-36
2023/10/05 07:42:09;;;;;;;1.27;0.70;;;;;;;;;;5095055;28;20028;-37
2023/10/05 07:44:40;;;;;;;2.20;1.02;;;;;;;;;;5095093;28;20032;-36
2023/10/05 07:47:07;;;;;;;1.73;0.77;;;;;;;;;;5095052;28;20023;-36
2023/10/05 07:49:34;;;;;;;3.40;1.17;;;;;;;;;;5095019;28;20486;-36
2023/10/05 07:52:03;;;;;;;2.40;1.05;;;;;;;;;;5094629;28;20024;-37
2023/10/05 07:54:34;;;;;;;1.52;0.73;;;;;;;;;;5094895;28;20040;-36
2023/10/05 07:57:04;;;;;;;2.72;1.05;;;;;;;;;;5094828;28;20393;-36
2023/10/05 07:59:31;;;;;;;1.45;0.68;;;;;;;;;;5094686;28;20035;-36
2023/10/05 08:01:58;;;;;;;2.15;1.10;;;;;;;;;;5110391;28;20389;-36
2023/10/05 08:04:25;;;;;;;1.95;0.98;;;;;;;;;;5094462;28;20063;-36
2023/10/05 08:06:53;;;;;;;2.40;1.00;;;;;;;;;;5094644;28;20085;-37
2023/10/05 08:09:21;;;;;;;1.55;0.90;;;;;;;;;;5094565;28;20505;-37
2023/10/05 08:11:50;;;;;;;2.97;0.80;;;;;;;;;;5094530;28;20107;-36
2023/10/05 08:14:17;;;;;;;1.20;0.68;;;;;;;;;;5094451;28;20047;-36
2023/10/05 08:16:50;;;;;;;1.77;0.80;;;;;;;;;;5094520;28;20020;-36
2023/10/05 08:19:21;;;;;;;1.98;0.98;;;;;;;;;;5094453;28;20543;-36
2023/10/05 08:21:48;;;;;;;1.45;0.80;;;;;;;;;;5094273;28;20029;-36
2023/10/05 08:24:17;;;;;;;3.17;1.00;;;;;;;;;;5094301;28;20036;-37
2023/10/05 08:26:44;;;;;;;2.88;1.35;;;;;;;;;;5093950;28;20385;-36
2023/10/05 08:29:11;;;;;;;2.25;0.98;;;;;;;;;;5094246;28;20431;-36
2023/10/05 08:31:38;;;;;;;1.27;0.80;;;;;;;;;;5094043;28;20032;-36
2023/10/05 08:34:09;;;;;;;2.00;0.80;;;;;;;;;;5094092;28;20032;-36
2023/10/05 08:36:36;;;;;;;3.95;0.75;;;;;;;;;;5094122;28;20105;-36
2023/10/05 08:39:07;;;;;;;1.15;0.80;;;;;;;;;;5094096;28;20024;-36
2023/10/05 08:41:39;;;;;;;0.90;0.60;;;;;;;;;;5093891;28;20040;-37
2023/10/05 08:44:10;;;;;;;1.75;0.73;;;;;;;;;;5093830;28;20070;-37
2023/10/05 08:46:44;;;;;;;1.63;0.70;;;;;;;;;;5093996;28;20127;-37
2023/10/05 08:49:12;;;;;;;1.80;0.77;;;;;;;;;;5093749;28;20116;-37
2023/10/05 08:51:42;;;;;;;3.00;0.70;;;;;;;;;;5093641;28;20051;-37
2023/10/05 08:54:09;;;;;;;3.38;0.90;;;;;;;;;;5093559;28;20044;-37
2023/10/05 08:56:45;;;;;;;1.60;0.80;;;;;;;;;;5075814;28;20024;-37
2023/10/05 08:59:15;;;;;;;1.15;0.70;;;;;;;;;;5093643;28;20493;-37
2023/10/05 09:01:43;;;;;;;2.45;1.02;;;;;;;;;;5093593;28;20098;-37
2023/10/05 09:04:11;;;;;;;1.10;0.70;;;;;;;;;;5096117;28;20040;-36
2023/10/05 09:07:08;;;;;;;2.33;0.73;;;;;;;;;;5096111;28;20024;-37
2023/10/05 09:09:39;;;;;;;1.33;0.73;;;;;;;;;;5101855;28;20032;-37
2023/10/05 09:12:34;;;;;;;20.00;1.45;;;;;;;;;;5093097;28;20040;-37
2023/10/05 09:15:07;;;;;;;1.83;0.70;;;;;;;;;;5093378;28;20028;-36
2023/10/05 09:17:34;;;;;;;1.90;0.90;;;;;;;;;;5087293;28;20028;-39
2023/10/05 09:20:24;;;;;;;2.63;1.08;;;;;;;;;;5091618;28;20039;-39
2023/10/05 09:22:55;;;;;;;2.17;1.02;;;;;;;;;;5091293;28;20107;-37
2023/10/05 09:25:29;;;;;;;5.30;0.90;;;;;;;;;;5090146;28;20051;-36
2023/10/05 09:27:58;;;;;;;2.17;0.73;;;;;;;;;;5092751;28;20024;-37
2023/10/05 09:30:30;;;;;;;5.78;0.90;;;;;;;;;;5092065;28;20081;-36
2023/10/05 09:33:07;;;;;;;3.05;0.95;;;;;;;;;;5092477;28;20043;-34
2023/10/05 09:35:34;;;;;;;2.33;1.10;;;;;;;;;;5091070;28;20081;-39
2023/10/05 09:38:01;;;;;;;3.10;1.00;;;;;;;;;;5090661;28;20028;-39
2023/10/05 09:40:31;;;;;;;2.85;1.05;;;;;;;;;;5092652;28;20800;-39
2023/10/05 09:43:00;;;;;;;3.63;1.13;;;;;;;;;;5106515;28;20023;-39
2023/10/05 09:45:30;;;;;;;3.08;1.10;;;;;;;;;;5105973;28;20031;-38
2023/10/05 09:48:03;;;;;;;3.55;0.90;;;;;;;;;;5111438;28;20043;-38
2023/10/05 09:50:31;;;;;;;6.10;1.10;;;;;;;;;;5112194;28;20050;-38
2023/10/05 09:53:02;;;;;;;2.80;1.15;;;;;;;;;;5111683;28;20100;-38
2023/10/05 09:55:32;;;;;;;6.70;1.17;;;;;;;;;;5112861;28;20035;-38
2023/10/05 09:58:05;;;;;;;7.05;1.10;;;;;;;;;;5092839;28;20537;-37
2023/10/05 10:03:06;;;;;;;8.55;1.33;;;;;;;;;;5111952;28;20131;-36
2023/10/05 10:05:36;;;;;;;5.25;1.33;;;;;;;;;;5112642;28;20098;-39
2023/10/05 10:08:23;;;;;;;2.15;1.15;;;;;;;;;;5110652;28;20039;-38
2023/10/05 10:11:17;;;;;;;7.75;1.58;;;;;;;;;;5105622;28;20114;-38
2023/10/05 10:14:06;;;;;;;3.97;1.10;;;;;;;;;;5091974;28;20071;-39
2023/10/05 10:16:43;;;;;;;8.88;1.85;;;;;;;;;;5093952;28;20136;-36
2023/10/05 10:19:19;;;;;;;4.57;1.08;;;;;;;;;;5101167;28;20026;-36
2023/10/05 10:22:00;;;;;;;5.47;1.45;;;;;;;;;;5100015;28;20093;-36
2023/10/05 10:24:29;;;;;;;4.90;1.20;;;;;;;;;;5098401;28;20059;-38
2023/10/05 10:27:15;;;;;;;6.15;1.40;;;;;;;;;;5100619;28;20782;-36
2023/10/05 10:29:43;;;;;;;7.93;1.25;;;;;;;;;;5107477;28;20059;-38
2023/10/05 10:32:18;;;;;;;4.25;1.60;;;;;;;;;;5096967;28;20552;-36
2023/10/05 10:34:55;;;;;;;12.00;1.92;;;;;;;;;;5089959;28;20036;-40
2023/10/05 10:37:40;;;;;;;6.75;1.60;;;;;;;;;;5094008;28;20488;-40
2023/10/05 10:42:50;;;;;;;10.93;1.92;;;;;;;;;;5091513;28;20468;-39
2023/10/05 10:45:23;;;;;;;10.73;1.75;;;;;;;;;;5089903;28;20032;-41
2023/10/05 10:47:52;;;;;;;15.45;1.73;;;;;;;;;;5101466;28;20044;-39
2023/10/05 10:50:23;;;;;;;10.93;1.88;;;;;;;;;;5112019;28;20380;-39
2023/10/05 10:52:51;;;;;;;9.85;1.95;;;;;;;;;;5111636;28;20039;-39
2023/10/05 10:55:20;;;;;;;10.98;1.90;;;;;;;;;;5110612;28;20024;-39
2023/10/05 10:57:53;;;;;;;12.73;1.60;;;;;;;;;;5110894;28;20432;-39
2023/10/05 11:03:15;;;;;;;10.82;1.67;;;;;;;;;;5110899;28;20051;-41
2023/10/05 11:05:54;;;;;;;12.50;2.15;;;;;;;;;;5111128;28;20385;-39
2023/10/05 11:08:21;;;;;;;12.55;1.63;;;;;;;;;;5111769;28;20043;-39
2023/10/05 11:11:23;;;;;;;6.97;1.35;;;;;;;;;;5111899;28;20020;-40
2023/10/05 11:14:05;;;;;;;12.85;2.15;;;;;;;;;;5111191;28;20127;-40
2023/10/05 11:16:43;;;;;;;9.52;1.88;;;;;;;;;;5100711;28;20028;-39
2023/10/05 11:19:13;;;;;;;8.50;1.42;;;;;;;;;;5091315;28;20036;-39
2023/10/05 11:21:47;;;;;;;6.90;1.52;;;;;;;;;;5091337;28;20483;-40
2023/10/05 11:24:18;;;;;;;12.32;1.88;;;;;;;;;;5091391;28;20024;-40
2023/10/05 11:29:28;;;;;;;6.85;1.60;;;;;;;;;;5091563;28;20024;-40
2023/10/05 11:32:12;;;;;;;8.70;1.38;;;;;;;;;;5090474;28;20543;-40
2023/10/05 11:34:44;;;;;;;8.77;1.40;;;;;;;;;;5091144;28;20036;-40
2023/10/05 11:37:18;;;;;;;11.47;1.33;;;;;;;;;;5090776;28;20432;-41
2023/10/05 11:39:58;;;;;;;8.10;1.63;;;;;;;;;;5091113;28;20020;-40
2023/10/05 11:42:27;;;;;;;11.23;1.70;;;;;;;;;;5090986;28;20028;-40
2023/10/05 11:45:04;;;;;;;5.68;1.23;;;;;;;;;;5090762;28;22340;-40
2023/10/05 11:47:35;;;;;;;10.27;1.30;;;;;;;;;;5089537;28;20679;-40
2023/10/05 11:50:09;;;;;;;4.47;1.35;;;;;;;;;;5090921;28;20114;-40
2023/10/05 11:52:39;;;;;;;8.85;1.17;;;;;;;;;;5090389;28;20032;-40
2023/10/05 11:55:14;;;;;;;3.88;0.93;;;;;;;;;;5090328;28;20035;-40
2023/10/05 11:57:41;;;;;;;10.73;1.30;;;;;;;;;;5088040;28;20059;-40
2023/10/05 12:00:11;;;;;;;4.05;1.20;;;;;;;;;;5091696;28;20404;-39
2023/10/05 12:02:38;;;;;;;7.90;1.02;;;;;;;;;;5093772;28;20048;-38
2023/10/05 12:05:05;;;;;;;3.17;0.90;;;;;;;;;;5094200;28;20020;-39
2023/10/05 12:07:32;;;;;;;8.15;1.00;;;;;;;;;;5094087;28;20016;-39
2023/10/05 12:09:59;;;;;;;3.42;0.93;;;;;;;;;;5093868;28;20085;-38
2023/10/05 12:12:26;;;;;;;3.88;0.90;;;;;;;;;;5094497;28;20551;-38
2023/10/05 12:14:53;;;;;;;3.53;0.93;;;;;;;;;;5094547;28;20032;-39
2023/10/05 12:17:21;;;;;;;4.35;0.98;;;;;;;;;;5094502;28;20097;-38
2023/10/05 12:19:51;;;;;;;4.53;1.08;;;;;;;;;;5094154;28;20040;-39
2023/10/05 12:22:18;;;;;;;6.93;1.40;;;;;;;;;;5099039;28;20073;-40
2023/10/05 12:24:45;;;;;;;4.13;1.13;;;;;;;;;;5104890;28;20372;-39
2023/10/05 12:27:20;;;;;;;5.55;1.05;;;;;;;;;;5100769;28;20064;-39
2023/10/05 12:29:48;;;;;;;9.80;1.23;;;;;;;;;;5097220;28;20419;-39
2023/10/05 12:32:15;;;;;;;5.43;1.38;;;;;;;;;;5098623;28;20103;-40
2023/10/05 12:34:48;;;;;;;9.48;1.83;;;;;;;;;;5094890;28;20020;-39
2023/10/05 12:37:18;;;;;;;9.65;1.85;;;;;;;;;;5093562;28;20036;-41
2023/10/05 12:39:46;;;;;;;8.82;1.30;;;;;;;;;;5093795;28;20402;-40
2023/10/05 12:42:14;;;;;;;3.90;1.20;;;;;;;;;;5093720;28;20509;-40
2023/10/05 12:44:40;;;;;;;5.15;1.52;;;;;;;;;;5093907;28;20545;-40
2023/10/05 12:47:07;;;;;;;7.13;1.30;;;;;;;;;;5093914;28;20027;-40
2023/10/05 12:49:35;;;;;;;8.30;1.70;;;;;;;;;;5093912;28;20028;-40
2023/10/05 12:52:02;;;;;;;8.30;1.58;;;;;;;;;;5093662;28;20435;-40
2023/10/05 12:54:29;;;;;;;7.32;1.42;;;;;;;;;;5093581;28;20402;-41
2023/10/05 12:56:57;;;;;;;7.45;1.35;;;;;;;;;;5093787;28;20099;-40
2023/10/05 12:59:24;;;;;;;11.18;1.63;;;;;;;;;;5093702;28;20024;-40
2023/10/05 13:01:57;;;;;;;3.88;1.17;;;;;;;;;;5093609;28;20020;-40
2023/10/05 13:04:24;;;;;;;5.80;1.50;;;;;;;;;;5093258;28;20135;-41
2023/10/05 13:06:51;;;;;;;6.45;1.15;;;;;;;;;;5093626;28;20505;-40
2023/10/05 13:09:23;;;;;;;4.90;1.40;;;;;;;;;;5093523;28;20020;-40
2023/10/05 13:11:49;;;;;;;;;;;;;;;;;;5093671;28;20036;-40
2023/10/05 13:14:19;;;;;;;6.40;1.35;;;;;;;;;;5093405;28;19920;-40
2023/10/05 13:16:51;;;;;;;5.10;1.30;;;;;;;;;;5093159;28;20432;-40
2023/10/05 13:19:18;;;;;;;3.00;1.00;;;;;;;;;;5092865;28;20028;-40
2023/10/05 13:21:45;;;;;;;6.63;1.00;;;;;;;;;;5092835;28;20036;-40
2023/10/05 13:24:13;;;;;;;5.43;1.20;;;;;;;;;;5093248;28;20031;-40
2023/10/05 13:26:44;;;;;;;3.80;1.17;;;;;;;;;;5093179;28;20032;-40
2023/10/05 13:29:11;;;;;;;2.85;0.90;;;;;;;;;;5093015;28;20081;-40
2023/10/05 13:31:41;;;;;;;3.45;1.00;;;;;;;;;;5092851;28;20024;-41
2023/10/05 13:34:27;;;;;;;3.38;1.10;;;;;;;;;;5092940;28;20034;-41
2023/10/05 13:36:54;;;;;;;6.07;1.00;;;;;;;;;;5092980;28;20022;-40
2023/10/05 13:39:21;;;;;;;1.95;0.95;;;;;;;;;;5092893;28;20016;-41
2023/10/05 13:41:59;;;;;;;3.60;0.93;;;;;;;;;;5092841;28;20065;-41
2023/10/05 13:44:30;;;;;;;5.10;1.35;;;;;;;;;;5092985;28;20115;-41
2023/10/05 13:46:59;;;;;;;2.20;0.90;;;;;;;;;;5092804;28;20027;-41
2023/10/05 13:49:30;;;;;;;2.95;0.90;;;;;;;;;;5092641;28;20511;-41
2023/10/05 13:52:05;;;;;;;2.90;0.90;;;;;;;;;;5092476;28;20024;-41
2023/10/05 13:54:35;;;;;;;2.45;0.82;;;;;;;;;;5092451;28;20036;-41
2023/10/05 13:57:03;;;;;;;3.75;0.80;;;;;;;;;;5074393;28;20103;-42
2023/10/05 13:59:30;;;;;;;3.60;1.02;;;;;;;;;;5092428;28;20028;-41
2023/10/05 14:02:00;;;;;;;6.43;0.82;;;;;;;;;;5092436;28;20027;-41
2023/10/05 14:04:30;;;;;;;1.60;0.70;;;;;;;;;;5092146;28;20102;-41
2023/10/05 14:06:59;;;;;;;4.32;0.95;;;;;;;;;;5092428;28;20359;-41
2023/10/05 14:09:28;;;;;;;3.25;0.60;;;;;;;;;;5092441;28;20020;-41
2023/10/05 14:11:55;;;;;;;4.45;0.80;;;;;;;;;;5092070;28;20036;-40
2023/10/05 14:14:22;;;;;;;3.78;0.80;;;;;;;;;;5092281;28;20062;-41
2023/10/05 14:17:06;;;;;;;1.98;0.90;;;;;;;;;;5092199;28;20021;-41
2023/10/05 14:19:33;;;;;;;3.17;0.82;;;;;;;;;;5092116;28;20036;-41
2023/10/05 14:22:03;;;;;;;2.10;0.82;;;;;;;;;;5092086;28;20512;-41
2023/10/05 14:24:41;;;;;;;3.60;0.60;;;;;;;;;;5063822;28;20130;-41
2023/10/05 14:27:08;;;;;;;1.95;0.63;;;;;;;;;;5091878;28;20060;-41
2023/10/05 14:29:47;;;;;;;1.40;0.63;;;;;;;;;;5092120;28;20367;-40
2023/10/05 14:32:15;;;;;;;3.83;0.68;;;;;;;;;;5091859;28;20079;-42
2023/10/05 14:34:49;;;;;;;1.67;0.63;;;;;;;;;;5091903;28;20036;-41
2023/10/05 14:37:17;;;;;;;4.15;0.73;;;;;;;;;;5091776;28;20040;-40
2023/10/05 14:39:45;;;;;;;2.97;0.60;;;;;;;;;;5091797;28;20060;-41
2023/10/05 14:42:14;;;;;;;3.63;0.68;;;;;;;;;;5091734;28;20477;-41
2023/10/05 14:44:42;;;;;;;3.67;0.77;;;;;;;;;;5091708;28;20031;-41
2023/10/05 14:47:24;;;;;;;3.60;0.77;;;;;;;;;;5091729;28;20494;-40
2023/10/05 14:49:51;;;;;;;3.25;0.70;;;;;;;;;;5091845;28;20020;-41
2023/10/05 14:52:19;;;;;;;2.10;0.50;;;;;;;;;;5091637;28;20077;-40
2023/10/05 14:54:46;;;;;;;3.17;0.80;;;;;;;;;;5091880;28;20530;-41
2023/10/05 14:57:14;;;;;;;0.98;0.50;;;;;;;;;;5073498;28;20032;-40
2023/10/05 14:59:41;;;;;;;3.83;0.73;;;;;;;;;;5091540;28;20027;-41
2023/10/05 15:02:08;;;;;;;3.05;0.77;;;;;;;;;;5091682;28;20513;-41
2023/10/05 15:04:35;;;;;;;2.10;0.60;;;;;;;;;;5091505;28;20048;-40
2023/10/05 15:07:02;;;;;;;0.65;0.40;;;;;;;;;;5091591;28;20028;-41
2023/10/05 15:09:29;;;;;;;9.35;0.70;;;;;;;;;;5091603;28;20035;-41
2023/10/05 15:11:57;;;;;;;2.85;0.60;;;;;;;;;;5091494;28;20482;-41
2023/10/05 15:14:24;;;;;;;3.17;0.80;;;;;;;;;;5091346;28;20051;-41
2023/10/05 15:16:52;;;;;;;3.85;1.17;;;;;;;;;;5091576;28;20032;-41
2023/10/05 15:19:19;;;;;;;10.77;1.00;;;;;;;;;;5091563;28;20085;-41
2023/10/05 15:21:46;;;;;;;11.82;1.02;;;;;;;;;;5091208;28;20115;-41
2023/10/05 15:24:13;;;;;;;4.20;0.73;;;;;;;;;;5091456;28;20036;-41
2023/10/05 15:26:40;;;;;;;2.88;0.80;;;;;;;;;;5091475;28;20040;-41
2023/10/05 15:29:12;;;;;;;2.53;0.80;;;;;;;;;;5091447;28;20588;-41
2023/10/05 15:31:41;;;;;;;4.03;1.60;;;;;;;;;;5091178;28;20032;-41
2023/10/05 15:34:09;;;;;;;6.30;2.20;;;;;;;;;;5091184;28;20447;-41
2023/10/05 15:36:38;;;;;;;8.73;1.92;;;;;;;;;;5094740;28;20024;-41
2023/10/05 15:39:06;;;;;;;11.77;1.58;;;;;;;;;;5095158;28;20028;-41
2023/10/05 15:41:33;;;;;;;5.55;1.30;;;;;;;;;;5094950;28;20115;-41